Time;durP1;ratioP1;P1;durP2;ratioP2;P2;SDS_P1;SDS_P2;PMS_P1;PMS_P2;Temp;Humidity;BMP_temperature;BMP_pressure;BME280_temperature;BME280_humidity;BME280_pressure;Samples;Min_cycle;Max_cycle;Signal;HPM_P1;HPM_P2
2022/07/09 00:01:59;;;;;;;;;;;;;;;;;;5055815;28;19916;-41
2022/07/09 00:04:24;;;;;;;;;;;;;;;;;;5054727;28;20375;-41
2022/07/09 00:06:49;;;;;;;;;;;;;;;;;;5037398;28;20283;-41
2022/07/09 00:09:14;;;;;;;;;;;;;;;;;;5055477;28;19909;-41
2022/07/09 00:11:39;;;;;;;;;;;;;;;;;;5055313;28;19909;-40
2022/07/09 00:14:04;;;;;;;;;;;;;;;;;;5055534;28;19912;-42
2022/07/09 00:16:29;;;;;;;;;;;;;;;;;;5055345;28;19927;-41
2022/07/09 00:18:55;;;;;;;;;;;;;;;;;;5055515;28;20363;-40
2022/07/09 00:21:20;;;;;;;;;;;;;;;;;;5055210;28;20000;-41
2022/07/09 00:23:45;;;;;;;;;;;;;;;;;;5055153;28;19915;-40
2022/07/09 00:26:10;;;;;;;;;;;;;;;;;;5055033;28;19913;-41
2022/07/09 00:28:35;;;;;;;;;;;;;;;;;;5055137;28;19912;-41
2022/07/09 00:31:00;;;;;;;;;;;;;;;;;;5055092;28;19999;-41
2022/07/09 00:33:26;;;;;;;;;;;;;;;;;;5054973;28;19948;-41
2022/07/09 00:35:51;;;;;;;;;;;;;;;;;;5055004;28;19948;-41
2022/07/09 00:38:16;;;;;;;;;;;;;;;;;;5055270;28;19963;-40
2022/07/09 00:40:41;;;;;;;;;;;;;;;;;;5055209;28;19951;-41
2022/07/09 00:43:06;;;;;;;;;;;;;;;;;;5054839;28;20348;-41
2022/07/09 00:45:31;;;;;;;;;;;;;;;;;;5054953;28;20268;-41
2022/07/09 00:47:56;;;;;;;;;;;;;;;;;;5055299;28;19909;-40
2022/07/09 00:50:22;;;;;;;;;;;;;;;;;;5054681;28;19909;-42
2022/07/09 00:52:47;;;;;;;;;;;;;;;;;;5054805;28;19909;-42
2022/07/09 00:55:12;;;;;;;;;;;;;;;;;;5054830;28;19909;-41
2022/07/09 00:57:37;;;;;;;;;;;;;;;;;;5054691;28;19913;-41
2022/07/09 01:00:02;;;;;;;;;;;;;;;;;;5037063;28;19916;-42
2022/07/09 01:02:27;;;;;;;;;;;;;;;;;;5055002;28;19920;-43
2022/07/09 01:04:52;;;;;;;;;;;;;;;;;;5054872;28;19913;-41
2022/07/09 01:07:17;;;;;;;;;;;;;;;;;;5054556;28;19913;-41
2022/07/09 01:09:42;;;;;;;;;;;;;;;;;;5054699;28;20355;-42
2022/07/09 01:12:08;;;;;;;;;;;;;;;;;;5054903;28;19931;-41
2022/07/09 01:14:33;;;;;;;;;;;;;;;;;;5054865;28;19938;-41
2022/07/09 01:16:58;;;;;;;;;;;;;;;;;;5057273;28;19924;-41
2022/07/09 01:19:23;;;;;;;;;;;;;;;;;;5058695;28;19909;-42
2022/07/09 01:21:49;;;;;;;;;;;;;;;;;;5058631;28;20391;-41
2022/07/09 01:24:14;;;;;;;;;;;;;;;;;;5058633;28;20002;-41
2022/07/09 01:26:39;;;;;;;;;;;;;;;;;;5058186;28;19913;-41
2022/07/09 01:29:04;;;;;;;;;;;;;;;;;;5058345;28;20268;-41
2022/07/09 01:31:29;;;;;;;;;;;;;;;;;;5058476;28;19909;-42
2022/07/09 01:33:54;;;;;;;;;;;;;;;;;;5058262;28;19916;-41
2022/07/09 01:36:19;;;;;;;;;;;;;;;;;;5058287;28;19952;-41
2022/07/09 01:38:44;;;;;;;;;;;;;;;;;;5058124;28;20003;-40
2022/07/09 01:41:10;;;;;;;;;;;;;;;;;;5058323;28;19979;-41
2022/07/09 01:43:36;;;;;;;;;;;;;;;;;;5058332;28;20363;-42
2022/07/09 01:46:01;;;;;;;;;;;;;;;;;;5058070;28;19912;-41
2022/07/09 01:48:26;;;;;;;;;;;;;;;;;;5058268;28;20355;-41
2022/07/09 01:50:53;;;;;;;;;;;;;;;;;;5058088;28;19913;-41
2022/07/09 01:53:18;;;;;;;;;;;;;;;;;;5057777;28;19969;-40
2022/07/09 01:55:44;;;;;;;;;;;;;;;;;;5057896;28;20011;-41
2022/07/09 01:58:09;;;;;;;;;;;;;;;;;;5057720;28;19999;-41
2022/07/09 02:00:34;;;;;;;;;;;;;;;;;;5057836;28;19908;-41
2022/07/09 02:02:59;;;;;;;;;;;;;;;;;;5057753;28;19913;-40
2022/07/09 02:05:24;;;;;;;;;;;;;;;;;;5057423;28;19915;-41
2022/07/09 02:07:49;;;;;;;;;;;;;;;;;;5057736;28;19915;-41
2022/07/09 02:10:14;;;;;;;;;;;;;;;;;;5057745;28;19919;-41
2022/07/09 02:12:39;;;;;;;;;;;;;;;;;;5057821;28;20385;-41
2022/07/09 02:15:05;;;;;;;;;;;;;;;;;;5057878;28;19913;-40
2022/07/09 02:17:30;;;;;;;;;;;;;;;;;;5058030;28;20376;-41
2022/07/09 02:19:55;;;;;;;;;;;;;;;;;;5057553;28;19913;-41
2022/07/09 02:22:20;;;;;;;;;;;;;;;;;;5057700;28;19963;-42
2022/07/09 02:24:45;;;;;;;;;;;;;;;;;;5057466;28;19916;-41
2022/07/09 02:27:10;;;;;;;;;;;;;;;;;;5056925;28;19920;-41
2022/07/09 02:29:35;;;;;;;;;;;;;;;;;;5057522;28;19919;-41
2022/07/09 02:32:01;;;;;;;;;;;;;;;;;;5057604;28;19920;-41
2022/07/09 02:34:26;;;;;;;;;;;;;;;;;;5057447;28;19909;-41
2022/07/09 02:36:51;;;;;;;;;;;;;;;;;;5057763;28;19909;-41
2022/07/09 02:39:16;;;;;;;;;;;;;;;;;;5057299;28;19913;-40
2022/07/09 02:41:41;;;;;;;;;;;;;;;;;;5057359;28;20323;-41
2022/07/09 02:44:06;;;;;;;;;;;;;;;;;;5057390;28;20003;-40
2022/07/09 02:46:31;;;;;;;;;;;;;;;;;;5057229;28;19964;-42
2022/07/09 02:48:56;;;;;;;;;;;;;;;;;;5057237;28;20007;-41
2022/07/09 02:51:22;;;;;;;;;;;;;;;;;;5057323;28;20419;-40
2022/07/09 02:53:47;;;;;;;;;;;;;;;;;;5057288;28;20385;-40
2022/07/09 02:56:12;;;;;;;;;;;;;;;;;;5057277;28;19913;-41
2022/07/09 02:58:37;;;;;;;;;;;;;;;;;;5056835;28;20325;-41
2022/07/09 03:01:05;;;;;;;;;;;;;;;;;;5057037;28;20263;-41
2022/07/09 03:03:30;;;;;;;;;;;;;;;;;;5057092;28;19962;-41
2022/07/09 03:05:55;;;;;;;;;;;;;;;;;;5056784;28;19912;-41
2022/07/09 03:08:21;;;;;;;;;;;;;;;;;;5064260;28;20355;-41
2022/07/09 03:10:46;;;;;;;;;;;;;;;;;;5039144;28;19944;-41
2022/07/09 03:13:11;;;;;;;;;;;;;;;;;;5056916;28;19948;-41
2022/07/09 03:15:37;;;;;;;;;;;;;;;;;;5056200;28;19920;-41
2022/07/09 03:18:02;;;;;;;;;;;;;;;;;;5057015;28;19916;-41
2022/07/09 03:20:27;;;;;;;;;;;;;;;;;;5056946;28;19909;-41
2022/07/09 03:22:52;;;;;;;;;;;;;;;;;;5056622;28;20351;-41
2022/07/09 03:25:17;;;;;;;;;;;;;;;;;;5056890;28;20275;-40
2022/07/09 03:27:42;;;;;;;;;;;;;;;;;;5056191;28;19917;-41
2022/07/09 03:30:07;;;;;;;;;;;;;;;;;;5056387;28;19909;-41
2022/07/09 03:32:32;;;;;;;;;;;;;;;;;;5056363;28;19909;-41
2022/07/09 03:34:57;;;;;;;;;;;;;;;;;;5055903;28;19909;-41
2022/07/09 03:37:23;;;;;;;;;;;;;;;;;;5056472;28;20261;-41
2022/07/09 03:39:48;;;;;;;;;;;;;;;;;;5056191;28;19944;-41
2022/07/09 03:42:13;;;;;;;;;;;;;;;;;;5056190;28;19909;-41
2022/07/09 03:44:38;;;;;;;;;;;;;;;;;;5056153;28;20351;-41
2022/07/09 03:47:03;;;;;;;;;;;;;;;;;;5055707;28;19913;-41
2022/07/09 03:49:28;;;;;;;;;;;;;;;;;;5056102;28;19909;-40
2022/07/09 03:51:53;;;;;;;;;;;;;;;;;;5056176;28;19908;-41
2022/07/09 03:54:19;;;;;;;;;;;;;;;;;;5056067;28;19999;-41
2022/07/09 03:56:44;;;;;;;;;;;;;;;;;;5056044;28;19908;-41
2022/07/09 03:59:09;;;;;;;;;;;;;;;;;;5056081;28;19905;-42
2022/07/09 04:01:34;;;;;;;;;;;;;;;;;;5056172;28;19909;-41
2022/07/09 04:03:59;;;;;;;;;;;;;;;;;;5055640;28;19909;-40
2022/07/09 04:06:24;;;;;;;;;;;;;;;;;;5055995;28;20334;-40
2022/07/09 04:08:49;;;;;;;;;;;;;;;;;;5055808;28;19943;-41
2022/07/09 04:11:14;;;;;;;;;;;;;;;;;;5056062;28;19909;-41
2022/07/09 04:13:39;;;;;;;;;;;;;;;;;;5055586;28;20458;-40
2022/07/09 04:16:04;;;;;;;;;;;;;;;;;;5055289;28;19940;-41
2022/07/09 04:18:30;;;;;;;;;;;;;;;;;;5055402;28;19916;-41
2022/07/09 04:20:56;;;;;;;;;;;;;;;;;;5055499;28;19915;-42
2022/07/09 04:23:22;;;;;;;;;;;;;;;;;;5055712;28;19912;-41
2022/07/09 04:25:50;;;;;;;;;;;;;;;;;;5055495;28;20354;-41
2022/07/09 04:28:15;;;;;;;;;;;;;;;;;;5055645;28;19920;-40
2022/07/09 04:30:41;;;;;;;;;;;;;;;;;;5055651;28;19908;-41
2022/07/09 04:33:06;;;;;;;;;;;;;;;;;;5055317;28;19912;-40
2022/07/09 04:35:31;;;;;;;;;;;;;;;;;;5055767;28;19908;-41
2022/07/09 04:37:56;;;;;;;;;;;;;;;;;;5055440;28;20348;-41
2022/07/09 04:40:22;;;;;;;;;;;;;;;;;;5055264;28;20360;-41
2022/07/09 04:42:47;;;;;;;;;;;;;;;;;;5055134;28;19915;-41
2022/07/09 04:45:12;;;;;;;;;;;;;;;;;;5054954;28;19905;-41
2022/07/09 04:47:37;;;;;;;;;;;;;;;;;;5055025;28;19985;-41
2022/07/09 04:50:04;;;;;;;;;;;;;;;;;;5055491;28;20320;-42
2022/07/09 04:52:29;;;;;;;;;;;;;;;;;;5061324;28;20460;-41
2022/07/09 04:54:54;;;;;;;;;;;;;;;;;;5061994;28;19947;-42
2022/07/09 04:57:19;;;;;;;;;;;;;;;;;;5061335;28;20260;-41
2022/07/09 04:59:44;;;;;;;;;;;;;;;;;;5061578;28;20256;-41
2022/07/09 05:02:09;;;;;;;;;;;;;;;;;;5061413;28;19909;-40
2022/07/09 05:04:34;;;;;;;;;;;;;;;;;;5061761;28;19931;-41
2022/07/09 05:06:59;;;;;;;;;;;;;;;;;;5063228;28;20426;-41
2022/07/09 05:09:24;;;;;;;;;;;;;;;;;;5061758;28;19916;-41
2022/07/09 05:11:50;;;;;;;;;;;;;;;;;;5061784;28;20363;-41
2022/07/09 05:14:15;;;;;;;;;;;;;;;;;;5061699;28;19908;-41
2022/07/09 05:16:44;;;;;;;;;;;;;;;;;;5061621;28;19921;-40
2022/07/09 05:19:09;;;;;;;;;;;;;;;;;;5061688;28;19909;-40
2022/07/09 05:21:36;;;;;;;;;;;;;;;;;;5061587;28;19919;-41
2022/07/09 05:24:01;;;;;;;;;;;;;;;;;;5061806;28;19909;-41
2022/07/09 05:26:29;;;;;;;;;;;;;;;;;;5061389;28;20012;-41
2022/07/09 05:28:54;;;;;;;;;;;;;;;;;;5061643;28;19909;-42
2022/07/09 05:31:20;;;;;;;;;;;;;;;;;;5061185;28;19915;-41
2022/07/09 05:33:45;;;;;;;;;;;;;;;;;;5061174;28;19945;-41
2022/07/09 05:36:10;;;;;;;;;;;;;;;;;;5061201;28;19923;-41
2022/07/09 05:38:35;;;;;;;;;;;;;;;;;;5061133;28;19912;-41
2022/07/09 05:41:00;;;;;;;;;;;;;;;;;;5061187;28;19908;-41
2022/07/09 05:43:26;;;;;;;;;;;;;;;;;;5061024;28;19905;-41
2022/07/09 05:45:51;;;;;;;;;;;;;;;;;;5061094;28;19913;-41
2022/07/09 05:48:16;;;;;;;;;;;;;;;;;;5060952;28;19909;-41
2022/07/09 05:50:41;;;;;;;;;;;;;;;;;;5060974;28;19912;-41
2022/07/09 05:53:06;;;;;;;;;;;;;;;;;;5061008;28;19916;-41
2022/07/09 05:55:31;;;;;;;;;;;;;;;;;;5061209;28;19909;-41
2022/07/09 05:57:57;;;;;;;;;;;;;;;;;;5060928;28;20375;-41
2022/07/09 06:00:22;;;;;;;;;;;;;;;;;;5061025;28;20381;-41
2022/07/09 06:02:47;;;;;;;;;;;;;;;;;;5057713;28;19915;-41
2022/07/09 06:05:13;;;;;;;;;;;;;;;;;;5057648;28;19916;-41
2022/07/09 06:07:44;;;;;;;;;;;;;;;;;;5057683;28;19920;-41
2022/07/09 06:10:09;;;;;;;;;;;;;;;;;;5057580;28;19909;-41
2022/07/09 06:12:35;;;;;;;;;;;;;;;;;;5057809;28;20368;-41
2022/07/09 06:15:01;;;;;;;;;;;;;;;;;;5057421;28;19916;-41
2022/07/09 06:17:26;;;;;;;;;;;;;;;;;;5057233;28;19928;-41
2022/07/09 06:19:51;;;;;;;;;;;;;;;;;;5057319;28;19909;-41
2022/07/09 06:22:16;;;;;;;;;;;;;;;;;;5057493;28;20358;-41
2022/07/09 06:24:41;;;;;;;;;;;;;;;;;;5039576;28;20318;-41
2022/07/09 06:27:06;;;;;;;;;;;;;;;;;;5057312;28;19916;-41
2022/07/09 06:29:31;;;;;;;;;;;;;;;;;;5057486;28;19909;-41
2022/07/09 06:31:59;;;;;;;;;;;;;;;;;;5057089;28;20427;-41
2022/07/09 06:34:25;;;;;;;;;;;;;;;;;;5057163;28;20279;-41
2022/07/09 06:36:50;;;;;;;;;;;;;;;;;;5057140;28;19909;-41
2022/07/09 06:41:59;;;;;;;;;;;;;;;;;;5057229;28;19950;-41
2022/07/09 06:44:24;;;;;;;;;;;;;;;;;;5056843;28;19909;-41
2022/07/09 06:46:49;;;;;;;;;;;;;;;;;;5056723;28;19913;-41
2022/07/09 06:49:14;;;;;;;;;;;;;;;;;;5056943;28;19964;-41
2022/07/09 06:51:39;;;;;;;;;;;;;;;;;;5056734;28;20066;-41
2022/07/09 06:54:04;;;;;;;;;;;;;;;;;;5056741;28;19962;-41
2022/07/09 06:56:29;;;;;;;;;;;;;;;;;;5056718;28;19981;-41
2022/07/09 06:58:54;;;;;;;;;;;;;;;;;;5056870;28;19909;-42
2022/07/09 07:01:19;;;;;;;;;;;;;;;;;;5056441;28;20294;-43
2022/07/09 07:03:47;;;;;;;;;;;;;;;;;;5056571;28;19995;-41
2022/07/09 07:06:12;;;;;;;;;;;;;;;;;;5056461;28;19912;-42
2022/07/09 07:08:38;;;;;;;;;;;;;;;;;;5056514;28;19919;-41
2022/07/09 07:11:03;;;;;;;;;;;;;;;;;;5056653;28;19970;-41
2022/07/09 07:13:28;;;;;;;;;;;;;;;;;;5056023;28;20327;-41
2022/07/09 07:15:53;;;;;;;;;;;;;;;;;;5056192;28;20368;-41
2022/07/09 07:18:18;;;;;;;;;;;;;;;;;;5056301;28;20282;-42
2022/07/09 07:20:43;;;;;;;;;;;;;;;;;;5056050;28;20275;-41
2022/07/09 07:23:08;;;;;;;;;;;;;;;;;;5056216;28;19909;-42
2022/07/09 07:25:33;;;;;;;;;;;;;;;;;;5055992;28;19916;-41
2022/07/09 07:27:58;;;;;;;;;;;;;;;;;;5055942;28;19962;-42
2022/07/09 07:30:24;;;;;;;;;;;;;;;;;;5055941;28;19963;-42
2022/07/09 07:32:49;;;;;;;;;;;;;;;;;;5056014;28;20337;-42
2022/07/09 07:35:14;;;;;;;;;;;;;;;;;;5055625;28;20266;-41
2022/07/09 07:37:39;;;;;;;;;;;;;;;;;;5055654;28;19909;-42
2022/07/09 07:40:04;;;;;;;;;;;;;;;;;;5055747;28;19909;-42
2022/07/09 07:42:29;;;;;;;;;;;;;;;;;;5055888;28;19918;-41
2022/07/09 07:44:55;;;;;;;;;;;;;;;;;;5055455;28;19912;-42
2022/07/09 07:47:20;;;;;;;;;;;;;;;;;;5055639;28;19967;-41
2022/07/09 07:49:45;;;;;;;;;;;;;;;;;;5056061;28;19909;-41
2022/07/09 07:52:10;;;;;;;;;;;;;;;;;;5055877;28;19923;-41
2022/07/09 07:54:36;;;;;;;;;;;;;;;;;;5055512;28;19916;-41
2022/07/09 07:57:01;;;;;;;;;;;;;;;;;;5055504;28;19908;-41
2022/07/09 07:59:26;;;;;;;;;;;;;;;;;;5055280;28;19908;-41
2022/07/09 08:01:51;;;;;;;;;;;;;;;;;;5055174;28;19944;-41
2022/07/09 08:04:17;;;;;;;;;;;;;;;;;;5055278;28;19956;-42
2022/07/09 08:06:42;;;;;;;;;;;;;;;;;;5055055;28;20015;-41
2022/07/09 08:09:07;;;;;;;;;;;;;;;;;;5055384;28;19912;-42
2022/07/09 08:11:32;;;;;;;;;;;;;;;;;;5055296;28;20007;-41
2022/07/09 08:13:58;;;;;;;;;;;;;;;;;;5055100;28;20319;-42
2022/07/09 08:16:23;;;;;;;;;;;;;;;;;;5074689;22;19924;-42
2022/07/09 08:18:48;;;;;;;;;;;;;;;;;;5095216;28;19908;-41
2022/07/09 08:21:13;;;;;;;;;;;;;;;;;;5095117;28;19908;-41
2022/07/09 08:23:54;;;;;;;;;;;;;;;;;;5095197;28;19912;-41
2022/07/09 08:26:19;;;;;;;;;;;;;;;;;;5094461;28;20002;-41
2022/07/09 08:28:44;;;;;;;;;;;;;;;;;;5095393;28;19966;-41
2022/07/09 08:31:09;;;;;;;;;;;;;;;;;;5095154;28;19908;-41
2022/07/09 08:33:34;;;;;;;;;;;;;;;;;;5095272;28;19908;-41
2022/07/09 08:35:59;;;;;;;;;;;;;;;;;;5095157;28;19908;-42
2022/07/09 08:38:24;;;;;;;;;;;;;;;;;;5094944;28;19909;-41
2022/07/09 08:40:49;;;;;;;;;;;;;;;;;;5095119;28;19908;-42
2022/07/09 08:43:14;;;;;;;;;;;;;;;;;;5094886;28;20355;-42
2022/07/09 08:45:39;;;;;;;;;;;;;;;;;;5094953;28;19908;-42
2022/07/09 08:48:05;;;;;;;;;;;;;;;;;;5094895;28;19909;-41
2022/07/09 08:50:31;;;;;;;;;;;;;;;;;;5094977;28;19908;-42
2022/07/09 08:52:56;;;;;;;;;;;;;;;;;;5094868;28;19973;-42
2022/07/09 08:55:21;;;;;;;;;;;;;;;;;;5094888;28;20260;-42
2022/07/09 08:57:46;;;;;;;;;;;;;;;;;;5094952;28;19917;-41
2022/07/09 09:00:11;;;;;;;;;;;;;;;;;;5094973;28;19908;-41
2022/07/09 09:02:36;;;;;;;;;;;;;;;;;;5110369;28;19908;-42
2022/07/09 09:05:01;;;;;;;;;;;;;;;;;;5094646;28;19912;-41
2022/07/09 09:07:26;;;;;;;;;;;;;;;;;;5094669;28;19912;-42
2022/07/09 09:09:52;;;;;;;;;;;;;;;;;;5094738;28;19909;-41
2022/07/09 09:12:17;;;;;;;;;;;;;;;;;;5094655;28;20267;-42
2022/07/09 09:14:42;;;;;;;;;;;;;;;;;;5094626;28;19915;-42
2022/07/09 09:17:09;;;;;;;;;;;;;;;;;;5094532;28;19927;-42
2022/07/09 09:19:34;;;;;;;;;;;;;;;;;;5094594;28;19961;-42
2022/07/09 09:21:59;;;;;;;;;;;;;;;;;;5094509;28;19909;-42
2022/07/09 09:24:24;;;;;;;;;;;;;;;;;;5094587;28;19915;-42
2022/07/09 09:26:49;;;;;;;;;;;;;;;;;;5094371;28;19916;-43
2022/07/09 09:29:15;;;;;;;;;;;;;;;;;;5094510;28;20373;-43
2022/07/09 09:31:40;;;;;;;;;;;;;;;;;;5094477;28;19916;-42
2022/07/09 09:34:05;;;;;;;;;;;;;;;;;;5094493;28;19905;-42
2022/07/09 09:36:33;;;;;;;;;;;;;;;;;;5094811;28;19909;-42
2022/07/09 09:38:58;;;;;;;;;;;;;;;;;;5098502;28;19908;-43
2022/07/09 09:41:23;;;;;;;;;;;;;;;;;;5098383;28;19915;-42
2022/07/09 09:43:48;;;;;;;;;;;;;;;;;;5098499;28;19908;-42
2022/07/09 09:46:13;;;;;;;;;;;;;;;;;;5098097;28;19919;-42
2022/07/09 09:48:38;;;;;;;;;;;;;;;;;;5098247;28;20294;-41
2022/07/09 09:51:03;;;;;;;;;;;;;;;;;;5097980;28;19908;-41
2022/07/09 09:53:28;;;;;;;;;;;;;;;;;;5097244;28;19918;-42
2022/07/09 09:55:54;;;;;;;;;;;;;;;;;;5081454;28;19918;-42
2022/07/09 09:58:19;;;;;;;;;;;;;;;;;;5077251;28;19935;-42
2022/07/09 10:00:44;;;;;;;;;;;;;;;;;;5077605;28;19915;-43
2022/07/09 10:03:09;;;;;;;;;;;;;;;;;;5077365;28;19923;-42
2022/07/09 10:05:34;;;;;;;;;;;;;;;;;;5077388;28;19909;-43
2022/07/09 10:08:02;;;;;;;;;;;;;;;;;;5077221;28;19912;-41
2022/07/09 10:10:27;;;;;;;;;;;;;;;;;;5077233;28;20321;-43
2022/07/09 10:12:52;;;;;;;;;;;;;;;;;;5077418;28;19908;-43
2022/07/09 10:15:17;;;;;;;;;;;;;;;;;;5077410;28;19912;-41
2022/07/09 10:17:42;;;;;;;;;;;;;;;;;;5077376;28;19920;-43
2022/07/09 10:20:10;;;;;;;;;;;;;;;;;;5077177;28;19908;-43
2022/07/09 10:22:35;;;;;;;;;;;;;;;;;;5077397;28;19909;-43
2022/07/09 10:25:00;;;;;;;;;;;;;;;;;;5077272;28;20383;-42
2022/07/09 10:27:25;;;;;;;;;;;;;;;;;;5077140;28;19965;-41
2022/07/09 10:29:51;;;;;;;;;;;;;;;;;;5077161;28;19991;-42
2022/07/09 10:32:16;;;;;;;;;;;;;;;;;;5077393;28;19916;-42
2022/07/09 10:34:41;;;;;;;;;;;;;;;;;;5077155;28;19914;-42
2022/07/09 10:37:06;;;;;;;;;;;;;;;;;;5077268;28;19915;-42
2022/07/09 10:39:31;;;;;;;;;;;;;;;;;;5077207;28;19915;-42
2022/07/09 10:41:56;;;;;;;;;;;;;;;;;;5077041;28;19912;-42
2022/07/09 10:44:21;;;;;;;;;;;;;;;;;;5077158;28;19909;-42
2022/07/09 10:46:46;;;;;;;;;;;;;;;;;;5076846;28;19920;-42
2022/07/09 10:49:11;;;;;;;;;;;;;;;;;;5076261;28;19909;-43
2022/07/09 10:51:38;;;;;;;;;;;;;;;;;;5077050;28;19912;-42
2022/07/09 10:54:03;;;;;;;;;;;;;;;;;;5077055;28;20381;-42
2022/07/09 10:56:28;;;;;;;;;;;;;;;;;;5076721;28;19970;-42
2022/07/09 10:58:53;;;;;;;;;;;;;;;;;;5076997;28;20042;-42
2022/07/09 11:01:18;;;;;;;;;;;;;;;;;;5076708;28;19915;-41
2022/07/09 11:03:43;;;;;;;;;;;;;;;;;;5076533;28;20501;-42
2022/07/09 11:06:08;;;;;;;;;;;;;;;;;;5076721;28;19913;-41
2022/07/09 11:08:35;;;;;;;;;;;;;;;;;;5076467;28;19909;-42
2022/07/09 11:11:00;;;;;;;;;;;;;;;;;;5076502;28;20363;-42
2022/07/09 11:13:25;;;;;;;;;;;;;;;;;;5076308;28;20023;-42
2022/07/09 11:15:50;;;;;;;;;;;;;;;;;;5076226;28;19915;-42
2022/07/09 11:18:15;;;;;;;;;;;;;;;;;;5076363;28;19943;-42
2022/07/09 11:20:41;;;;;;;;;;;;;;;;;;5076427;28;20351;-42
2022/07/09 11:23:06;;;;;;;;;;;;;;;;;;5076308;28;19915;-42
2022/07/09 11:25:32;;;;;;;;;;;;;;;;;;5075932;28;19909;-42
2022/07/09 11:27:57;;;;;;;;;;;;;;;;;;5076161;28;19913;-42
2022/07/09 11:30:22;;;;;;;;;;;;;;;;;;5075949;28;19909;-42
2022/07/09 11:32:47;;;;;;;;;;;;;;;;;;5076205;28;19998;-43
2022/07/09 11:35:12;;;;;;;;;;;;;;;;;;5076001;28;20275;-42
2022/07/09 11:37:37;;;;;;;;;;;;;;;;;;5076025;28;19916;-42
2022/07/09 11:40:02;;;;;;;;;;;;;;;;;;5076191;28;19908;-42
2022/07/09 11:42:27;;;;;;;;;;;;;;;;;;5075770;28;19962;-42
2022/07/09 11:44:53;;;;;;;;;;;;;;;;;;5075767;28;19908;-42
2022/07/09 11:47:21;;;;;;;;;;;;;;;;;;5075557;28;20390;-41
2022/07/09 11:49:47;;;;;;;;;;;;;;;;;;5075472;28;19908;-42
2022/07/09 11:52:12;;;;;;;;;;;;;;;;;;5075947;28;19912;-42
2022/07/09 11:54:37;;;;;;;;;;;;;;;;;;5075469;28;19915;-42
2022/07/09 11:57:03;;;;;;;;;;;;;;;;;;5075593;28;19954;-43
2022/07/09 11:59:30;;;;;;;;;;;;;;;;;;5075147;28;20057;-42
2022/07/09 12:01:55;;;;;;;;;;;;;;;;;;5074483;28;20275;-42
2022/07/09 12:04:21;;;;;;;;;;;;;;;;;;5075452;28;19904;-43
2022/07/09 12:06:46;;;;;;;;;;;;;;;;;;5075388;28;19920;-42
2022/07/09 12:09:11;;;;;;;;;;;;;;;;;;5075431;28;19909;-42
2022/07/09 12:11:36;;;;;;;;;;;;;;;;;;5075292;28;19908;-43
2022/07/09 12:14:01;;;;;;;;;;;;;;;;;;5075336;28;19908;-41
2022/07/09 12:16:26;;;;;;;;;;;;;;;;;;5075031;28;20372;-42
2022/07/09 12:18:51;;;;;;;;;;;;;;;;;;5075262;28;19912;-42
2022/07/09 12:21:16;;;;;;;;;;;;;;;;;;5075123;28;19915;-43
2022/07/09 12:23:41;;;;;;;;;;;;;;;;;;5075162;28;19916;-42
2022/07/09 12:26:07;;;;;;;;;;;;;;;;;;5074882;28;20381;-42
2022/07/09 12:28:32;;;;;;;;;;;;;;;;;;5075194;28;19915;-43
2022/07/09 12:30:57;;;;;;;;;;;;;;;;;;5075168;28;20282;-42
2022/07/09 12:33:22;;;;;;;;;;;;;;;;;;5074759;28;19909;-42
2022/07/09 12:35:47;;;;;;;;;;;;;;;;;;5074925;28;19915;-42
2022/07/09 12:38:12;;;;;;;;;;;;;;;;;;5074820;28;20008;-43
2022/07/09 12:40:37;;;;;;;;;;;;;;;;;;5074899;28;20347;-42
2022/07/09 12:43:02;;;;;;;;;;;;;;;;;;5074689;28;19948;-42
2022/07/09 12:45:28;;;;;;;;;;;;;;;;;;5074850;28;19916;-42
2022/07/09 12:47:53;;;;;;;;;;;;;;;;;;5074885;28;19912;-42
2022/07/09 12:50:18;;;;;;;;;;;;;;;;;;5074612;28;19908;-41
2022/07/09 12:52:43;;;;;;;;;;;;;;;;;;5074597;28;19996;-42
2022/07/09 12:55:09;;;;;;;;;;;;;;;;;;5074772;28;19982;-42
2022/07/09 12:57:34;;;;;;;;;;;;;;;;;;5074698;28;19916;-42
2022/07/09 12:59:59;;;;;;;;;;;;;;;;;;5074470;28;19909;-42
2022/07/09 13:02:24;;;;;;;;;;;;;;;;;;5079735;28;19908;-42
2022/07/09 13:04:50;;;;;;;;;;;;;;;;;;5094624;28;19912;-42
2022/07/09 13:07:15;;;;;;;;;;;;;;;;;;5094765;28;19967;-42
2022/07/09 13:09:40;;;;;;;;;;;;;;;;;;5094877;28;20393;-42
2022/07/09 13:12:05;;;;;;;;;;;;;;;;;;5095997;28;20339;-42
2022/07/09 13:14:30;;;;;;;;;;;;;;;;;;5098956;28;19908;-42
2022/07/09 13:16:55;;;;;;;;;;;;;;;;;;5098578;28;19967;-42
2022/07/09 13:19:20;;;;;;;;;;;;;;;;;;5097401;28;19909;-43
2022/07/09 13:21:45;;;;;;;;;;;;;;;;;;5098550;28;19999;-43
2022/07/09 13:24:11;;;;;;;;;;;;;;;;;;5098687;28;19914;-42
2022/07/09 13:26:36;;;;;;;;;;;;;;;;;;5098580;28;19964;-41
2022/07/09 13:29:01;;;;;;;;;;;;;;;;;;5098619;28;19957;-42
2022/07/09 13:31:26;;;;;;;;;;;;;;;;;;5098498;28;20061;-42
2022/07/09 13:33:51;;;;;;;;;;;;;;;;;;5098832;28;19952;-43
2022/07/09 13:36:16;;;;;;;;;;;;;;;;;;5098185;28;19919;-42
2022/07/09 13:38:41;;;;;;;;;;;;;;;;;;5098183;28;19927;-42
2022/07/09 13:41:06;;;;;;;;;;;;;;;;;;5098276;28;19969;-42
2022/07/09 13:43:32;;;;;;;;;;;;;;;;;;5098105;28;20013;-42
2022/07/09 13:45:57;;;;;;;;;;;;;;;;;;5098111;28;19916;-42
2022/07/09 13:48:22;;;;;;;;;;;;;;;;;;5098280;28;20366;-43
2022/07/09 13:50:47;;;;;;;;;;;;;;;;;;5097958;28;19909;-43
2022/07/09 13:53:12;;;;;;;;;;;;;;;;;;5097205;28;19913;-43
2022/07/09 13:55:37;;;;;;;;;;;;;;;;;;5097070;28;19916;-42
2022/07/09 13:58:02;;;;;;;;;;;;;;;;;;5098231;28;19908;-42
2022/07/09 14:00:27;;;;;;;;;;;;;;;;;;5097855;28;20302;-43
2022/07/09 14:02:53;;;;;;;;;;;;;;;;;;5097577;28;19946;-42
2022/07/09 14:05:19;;;;;;;;;;;;;;;;;;5097652;28;20275;-42
2022/07/09 14:07:44;;;;;;;;;;;;;;;;;;5097789;28;20363;-42
2022/07/09 14:10:09;;;;;;;;;;;;;;;;;;5097795;28;19915;-42
2022/07/09 14:12:34;;;;;;;;;;;;;;;;;;5097630;28;19975;-41
2022/07/09 14:14:59;;;;;;;;;;;;;;;;;;5096210;28;19908;-43
2022/07/09 14:17:27;;;;;;;;;;;;;;;;;;5097366;28;20264;-42
2022/07/09 14:19:52;;;;;;;;;;;;;;;;;;5097313;28;19943;-43
2022/07/09 14:22:17;;;;;;;;;;;;;;;;;;5097455;28;19915;-43
2022/07/09 14:24:43;;;;;;;;;;;;;;;;;;5096215;28;20279;-42
2022/07/09 14:27:08;;;;;;;;;;;;;;;;;;5097105;28;19959;-42
2022/07/09 14:29:33;;;;;;;;;;;;;;;;;;5097795;28;19916;-43
2022/07/09 14:31:58;;;;;;;;;;;;;;;;;;5096255;28;19912;-42
2022/07/09 14:34:23;;;;;;;;;;;;;;;;;;5097159;28;20354;-43
2022/07/09 14:36:48;;;;;;;;;;;;;;;;;;5097052;28;19908;-42
2022/07/09 14:39:13;;;;;;;;;;;;;;;;;;5096955;28;20626;-43
2022/07/09 14:41:38;;;;;;;;;;;;;;;;;;5096823;28;19961;-45
2022/07/09 14:44:04;;;;;;;;;;;;;;;;;;5096944;28;19908;-43
2022/07/09 14:46:29;;;;;;;;;;;;;;;;;;5097037;28;19916;-42
2022/07/09 14:48:54;;;;;;;;;;;;;;;;;;5097004;28;19908;-42
2022/07/09 14:51:19;;;;;;;;;;;;;;;;;;5096768;28;19985;-43
2022/07/09 14:53:44;;;;;;;;;;;;;;;;;;5096970;28;20006;-44
2022/07/09 14:56:09;;;;;;;;;;;;;;;;;;5096794;28;19986;-42
2022/07/09 14:58:34;;;;;;;;;;;;;;;;;;5096914;28;20408;-43
2022/07/09 15:00:59;;;;;;;;;;;;;;;;;;5096473;28;19925;-43
2022/07/09 15:03:24;;;;;;;;;;;;;;;;;;5096388;28;19912;-43
2022/07/09 15:05:50;;;;;;;;;;;;;;;;;;5096278;28;20367;-43
2022/07/09 15:08:15;;;;;;;;;;;;;;;;;;5096306;28;19969;-42
2022/07/09 15:10:40;;;;;;;;;;;;;;;;;;5096424;28;20393;-43
2022/07/09 15:13:06;;;;;;;;;;;;;;;;;;5096434;28;19995;-42
2022/07/09 15:15:31;;;;;;;;;;;;;;;;;;5095070;28;19961;-42
2022/07/09 15:17:56;;;;;;;;;;;;;;;;;;5096229;28;19924;-42
2022/07/09 15:20:21;;;;;;;;;;;;;;;;;;5096191;28;19908;-43
2022/07/09 15:22:47;;;;;;;;;;;;;;;;;;5096099;28;19908;-43
2022/07/09 15:25:12;;;;;;;;;;;;;;;;;;5096178;28;19908;-42
2022/07/09 15:27:37;;;;;;;;;;;;;;;;;;5095987;28;19916;-43
2022/07/09 15:30:03;;;;;;;;;;;;;;;;;;5096119;28;19953;-42
2022/07/09 15:32:28;;;;;;;;;;;;;;;;;;5096076;28;19912;-42
2022/07/09 15:34:53;;;;;;;;;;;;;;;;;;5095794;28;20266;-42
2022/07/09 15:37:18;;;;;;;;;;;;;;;;;;5096003;28;19919;-43
2022/07/09 15:39:43;;;;;;;;;;;;;;;;;;5095893;28;20373;-43
2022/07/09 15:42:10;;;;;;;;;;;;;;;;;;5095850;28;20271;-42
2022/07/09 15:44:35;;;;;;;;;;;;;;;;;;5095803;28;19912;-42
2022/07/09 15:47:00;;;;;;;;;;;;;;;;;;5095673;28;19965;-44
2022/07/09 15:49:25;;;;;;;;;;;;;;;;;;5095840;28;19930;-42
2022/07/09 15:51:50;;;;;;;;;;;;;;;;;;5095800;28;19915;-43
2022/07/09 15:54:15;;;;;;;;;;;;;;;;;;5095722;28;20267;-43
2022/07/09 15:56:40;;;;;;;;;;;;;;;;;;5095890;28;20050;-42
2022/07/09 15:59:05;;;;;;;;;;;;;;;;;;5095716;28;19944;-42
2022/07/09 16:01:31;;;;;;;;;;;;;;;;;;5095514;28;19955;-42
2022/07/09 16:03:56;;;;;;;;;;;;;;;;;;5095267;28;20000;-42
2022/07/09 16:06:22;;;;;;;;;;;;;;;;;;5095586;28;19974;-42
2022/07/09 16:08:47;;;;;;;;;;;;;;;;;;5095567;28;19932;-43
2022/07/09 16:13:56;;;;;;;;;;;;;;;;;;5090361;28;19919;-43
2022/07/09 16:16:23;;;;;;;;;;;;;;;;;;5088935;28;20300;-42
2022/07/09 16:18:48;;;;;;;;;;;;;;;;;;5075211;28;19955;-42
2022/07/09 16:21:13;;;;;;;;;;;;;;;;;;5075038;28;20007;-42
2022/07/09 16:23:38;;;;;;;;;;;;;;;;;;5086877;28;19911;-42
2022/07/09 16:26:03;;;;;;;;;;;;;;;;;;5094982;28;19912;-43
2022/07/09 16:28:28;;;;;;;;;;;;;;;;;;5095254;28;20002;-43
2022/07/09 16:30:53;;;;;;;;;;;;;;;;;;5095113;28;19912;-43
2022/07/09 16:33:19;;;;;;;;;;;;;;;;;;5095029;28;19915;-42
2022/07/09 16:35:44;;;;;;;;;;;;;;;;;;5095019;28;19908;-43
2022/07/09 16:38:09;;;;;;;;;;;;;;;;;;5094908;28;19914;-43